Time;durP1;ratioP1;P1;durP2;ratioP2;P2;SDS_P1;SDS_P2;PMS_P1;PMS_P2;Temp;Humidity;BMP_temperature;BMP_pressure;BME280_temperature;BME280_humidity;BME280_pressure;Samples;Min_cycle;Max_cycle;Signal;HPM_P1;HPM_P2
2023/08/31 00:04:51;;;;;;;;;;;;;;;16.59;68.87;100130.47;15613949;28;20422;-49
2023/08/31 00:12:25;;;;;;;4.47;3.95;;;;;;;16.88;67.52;100123.81;15609580;28;19920;-47
2023/08/31 00:20:00;;;;;;;4.90;3.88;;;;;;;17.21;66.11;100130.69;15614242;28;20045;-49
2023/08/31 00:27:33;;;;;;;4.60;3.30;;;;;;;16.39;68.54;100133.09;15612980;28;20076;-48
2023/08/31 00:35:08;;;;;;;;;;;;;;;15.65;69.30;100135.84;15610314;28;20049;-51
2023/08/31 00:42:41;;;;;;;2.55;1.80;;;;;;;16.29;67.40;100130.34;15611913;28;20282;-50
2023/08/31 00:50:19;;;;;;;4.25;1.98;;;;;;;15.99;68.00;100150.75;15607686;28;20045;-50
2023/08/31 00:57:53;;;;;;;2.03;1.83;;;;;;;16.18;67.92;100144.88;15574786;28;20041;-51
2023/08/31 01:05:34;;;;;;;1.80;1.70;;;;;;;15.54;70.92;100164.69;15622082;28;20497;-47
2023/08/31 01:13:28;;;;;;;3.20;2.33;;;;;;;15.84;70.84;100164.16;15605863;28;20053;-48
2023/08/31 01:21:10;;;;;;;4.30;3.42;;;;;;;14.93;74.91;100180.28;15569316;28;20180;-48
2023/08/31 01:28:45;;;;;;;6.80;3.88;;;;;;;15.28;75.13;100164.44;15596735;28;20547;-47
2023/08/31 01:36:29;;;;;;;4.90;3.67;;;;;;;15.23;75.23;100153.56;15589530;28;20120;-48
2023/08/31 01:44:06;;;;;;;4.32;3.35;;;;;;;14.65;76.50;100175.91;15599338;28;20042;-51
2023/08/31 01:51:39;;;;;;;4.93;3.38;;;;;;;14.24;77.92;100205.00;15595272;28;20041;-49
2023/08/31 01:59:14;;;;;;;5.55;2.63;;;;;;;14.13;77.08;100224.78;15577166;28;20057;-49
2023/08/31 02:06:47;;;;;;;3.40;2.30;;;;;;;14.07;76.13;100210.41;15578287;28;20069;-47
2023/08/31 02:14:22;;;;;;;2.50;2.30;;;;;;;14.43;72.83;100209.06;15603162;28;20517;-47
2023/08/31 02:21:55;;;;;;;2.72;2.10;;;;;;;14.61;72.22;100196.38;15595905;28;20033;-47
2023/08/31 02:29:30;;;;;;;2.63;2.22;;;;;;;14.11;75.72;100213.44;15618280;28;20080;-47
2023/08/31 02:37:04;;;;;;;3.22;2.47;;;;;;;14.23;75.64;100217.69;15609349;28;20124;-47
2023/08/31 02:44:38;;;;;;;3.92;2.92;;;;;;;14.49;75.38;100215.38;15616450;28;20037;-48
2023/08/31 02:52:16;;;;;;;4.38;2.95;;;;;;;14.24;77.09;100215.81;15615439;28;20057;-47
2023/08/31 02:59:52;;;;;;;4.93;3.08;;;;;;;14.27;77.53;100223.41;15599003;28;20056;-47
2023/08/31 03:07:25;;;;;;;3.97;3.47;;;;;;;14.74;75.32;100236.53;15590207;28;20041;-47
2023/08/31 03:15:00;;;;;;;3.78;2.85;;;;;;;14.97;74.66;100240.88;15610422;28;20037;-47
2023/08/31 03:22:34;;;;;;;4.70;2.90;;;;;;;14.76;75.47;100242.47;15614986;28;20037;-47
2023/08/31 03:30:10;;;;;;;4.47;2.78;;;;;;;14.57;75.32;100260.06;15614429;28;20049;-48
2023/08/31 03:37:43;;;;;;;4.15;2.50;;;;;;;14.02;77.85;100253.50;15597463;28;20376;-47
2023/08/31 03:45:18;;;;;;;5.75;2.90;;;;;;;13.99;78.50;100257.53;15629534;22;20053;-53
2023/08/31 03:52:51;;;;;;;5.35;3.33;;;;;;;14.06;77.91;100256.53;15669793;28;20416;-56
2023/08/31 04:00:26;;;;;;;;;;;;;;;13.58;80.30;100258.69;15654399;28;20044;-48
2023/08/31 04:08:00;;;;;;;5.32;4.30;;;;;;;13.48;81.50;100269.28;15669165;28;20342;-45
2023/08/31 04:15:37;;;;;;;5.85;4.55;;;;;;;13.13;82.50;100274.75;15665223;28;20043;-49
2023/08/31 04:23:10;;;;;;;6.28;4.80;;;;;;;13.36;82.53;100284.69;15669609;28;20037;-46
2023/08/31 04:30:44;;;;;;;6.88;4.85;;;;;;;13.52;81.44;100278.50;15668132;28;20132;-47
2023/08/31 04:38:18;;;;;;;6.55;5.25;;;;;;;13.81;81.25;100281.22;15659428;28;20065;-46
2023/08/31 04:45:55;;;;;;;9.15;5.10;;;;;;;13.55;81.92;100296.09;15679860;28;20041;-47
2023/08/31 04:53:31;;;;;;;8.07;5.93;;;;;;;14.04;80.33;100305.38;15680996;28;20450;-52
2023/08/31 05:01:05;;;;;;;8.82;5.80;;;;;;;14.25;79.39;100288.44;15681022;28;20405;-45
2023/08/31 05:08:38;;;;;;;7.80;6.47;;;;;;;13.71;81.03;100306.13;15663374;28;20398;-45
2023/08/31 05:16:12;;;;;;;9.70;6.63;;;;;;;13.88;81.07;100314.25;15656467;28;20037;-52
2023/08/31 05:23:45;;;;;;;7.80;5.95;;;;;;;14.02;79.46;100318.25;15675292;28;20059;-51
2023/08/31 05:31:20;;;;;;;9.50;6.55;;;;;;;14.42;79.00;100323.53;15671231;28;20403;-50
2023/08/31 05:38:53;;;;;;;8.50;6.70;;;;;;;14.35;78.96;100332.84;15674821;28;20040;-47
2023/08/31 05:46:27;;;;;;;;;;;;;;;14.23;79.15;100347.25;15676603;28;20044;-51
2023/08/31 05:54:00;;;;;;;11.98;7.15;;;;;;;14.27;79.67;100356.50;15676592;28;19921;-52
2023/08/31 06:01:37;;;;;;;10.20;7.00;;;;;;;14.67;78.06;100352.03;15676001;28;20504;-46
2023/08/31 06:09:12;;;;;;;9.02;7.45;;;;;;;14.47;79.40;100366.81;15676477;28;20064;-48
2023/08/31 06:16:47;;;;;;;;;;;;;;;14.23;79.84;100385.06;15671189;28;20048;-46
2023/08/31 06:24:24;;;;;;;9.73;7.32;;;;;;;14.47;78.54;100380.31;15674992;28;20095;-46
2023/08/31 06:31:58;;;;;;;;;;;;;;;13.84;81.21;100381.34;15675668;28;20094;-49
2023/08/31 06:39:32;;;;;;;13.02;8.43;;;;;;;14.13;79.93;100392.97;15672684;28;19927;-49
2023/08/31 06:47:07;;;;;;;14.25;8.80;;;;;;;14.27;79.15;100401.59;15673103;28;20094;-50
2023/08/31 06:54:40;;;;;;;13.68;8.50;;;;;;;14.24;80.05;100405.56;15671416;28;20450;-49
2023/08/31 07:02:15;;;;;;;13.75;8.57;;;;;;;14.54;78.36;100408.00;15665071;28;20053;-45
2023/08/31 07:09:49;;;;;;;11.10;8.75;;;;;;;14.38;79.18;100410.69;15673539;28;20102;-45
2023/08/31 07:17:23;;;;;;;10.23;7.88;;;;;;;14.36;79.34;100410.09;15667950;28;20040;-45
2023/08/31 07:24:56;;;;;;;13.10;8.15;;;;;;;14.77;78.64;100417.84;15671726;28;20087;-44
2023/08/31 07:32:32;;;;;;;12.02;8.45;;;;;;;14.17;79.41;100434.59;15670740;28;20596;-46
2023/08/31 07:40:08;;;;;;;11.13;8.20;;;;;;;14.40;77.66;100439.06;15656022;28;20071;-47
2023/08/31 07:47:42;;;;;;;11.57;8.00;;;;;;;15.69;75.86;100448.13;15669351;28;20041;-46
2023/08/31 07:55:18;;;;;;;8.80;5.00;;;;;;;16.01;72.19;100453.66;15670754;28;20440;-46
2023/08/31 08:02:52;;;;;;;6.55;4.50;;;;;;;15.80;72.46;100456.13;15675071;28;20040;-46
2023/08/31 08:10:26;;;;;;;6.90;4.20;;;;;;;15.72;69.21;100463.88;15683104;28;20047;-45
2023/08/31 08:18:00;;;;;;;7.93;4.07;;;;;;;16.54;68.51;100439.31;15678075;28;20045;-51
2023/08/31 08:25:34;;;;;;;6.85;2.33;;;;;;;17.11;66.67;100464.19;15681455;28;20033;-56
2023/08/31 08:33:10;;;;;;;5.32;2.50;;;;;;;16.81;65.74;100463.72;15681699;28;20033;-46
2023/08/31 08:40:43;;;;;;;7.70;2.20;;;;;;;16.88;62.89;100452.66;15681286;28;20049;-51
2023/08/31 08:48:21;;;;;;;4.72;2.10;;;;;;;17.36;63.98;100439.16;15679211;28;20124;-48
2023/08/31 08:55:55;;;;;;;6.03;2.00;;;;;;;17.02;63.84;100462.00;15680579;28;20041;-47
2023/08/31 09:03:32;;;;;;;6.68;2.00;;;;;;;16.45;62.61;100467.94;15672107;28;20055;-48
2023/08/31 09:11:06;;;;;;;3.13;1.60;;;;;;;18.02;58.99;100467.47;15677821;28;20154;-45
2023/08/31 09:18:41;;;;;;;2.58;1.42;;;;;;;18.09;57.93;100454.47;15676040;28;20041;-47
2023/08/31 09:26:14;;;;;;;4.07;1.23;;;;;;;18.57;54.80;100459.72;15679239;28;20493;-47
2023/08/31 09:33:53;;;;;;;4.97;1.10;;;;;;;18.70;51.52;100452.94;15677185;28;20067;-46
2023/08/31 09:41:26;;;;;;;5.72;1.10;;;;;;;19.37;52.43;100452.63;15678402;28;20125;-45
2023/08/31 09:49:00;;;;;;;3.55;1.23;;;;;;;18.17;53.39;100447.66;15637593;22;20053;-50
2023/08/31 09:56:34;;;;;;;4.95;1.20;;;;;;;18.34;54.51;100431.97;15619009;28;20070;-50
2023/08/31 10:04:09;;;;;;;4.47;1.30;;;;;;;17.14;54.36;100461.78;15618764;28;20049;-54
2023/08/31 10:11:45;;;;;;;4.05;1.20;;;;;;;17.42;56.32;100467.94;15607256;28;20228;-50
2023/08/31 10:19:19;;;;;;;5.15;1.15;;;;;;;17.30;56.34;100462.72;15619466;28;20045;-53
2023/08/31 10:26:52;;;;;;;9.18;2.35;;;;;;;15.93;68.49;100529.91;15601213;28;20053;-55
2023/08/31 10:34:37;;;;;;;;;;;;;;;13.97;68.78;100488.19;15618691;28;20042;-54
2023/08/31 10:42:12;;;;;;;11.10;2.53;;;;;;;14.01;73.32;100483.94;15617084;28;19928;-52
2023/08/31 10:49:53;;;;;;;6.03;3.20;;;;;;;15.30;74.66;100475.16;15599584;28;20139;-51
2023/08/31 10:57:31;;;;;;;6.07;2.40;;;;;;;16.56;73.41;100477.00;15615381;28;20045;-53
2023/08/31 11:05:10;;;;;;;3.55;1.60;;;;;;;17.32;68.45;100472.22;15616456;28;20051;-52
2023/08/31 11:12:45;;;;;;;4.25;1.80;;;;;;;17.93;64.27;100460.09;15610927;28;20115;-53
2023/08/31 11:20:22;;;;;;;4.05;1.52;;;;;;;19.32;63.95;100447.19;15619267;28;20527;-55
2023/08/31 11:27:56;;;;;;;6.40;1.58;;;;;;;20.22;58.83;100431.88;15615485;28;20040;-57
2023/08/31 11:35:37;;;;;;;3.05;1.60;;;;;;;19.13;57.96;100437.97;15613761;28;20042;-49
2023/08/31 11:43:10;;;;;;;4.07;1.50;;;;;;;17.98;59.57;100435.66;15598416;28;20466;-52
2023/08/31 11:50:47;;;;;;;3.58;1.60;;;;;;;18.09;66.43;100443.59;15614193;28;20430;-51
2023/08/31 11:58:24;;;;;;;3.30;1.40;;;;;;;17.98;63.15;100443.81;15613570;28;20398;-50
2023/08/31 12:05:58;;;;;;;2.67;1.70;;;;;;;17.90;63.08;100452.47;15612910;28;20041;-51
2023/08/31 12:13:32;;;;;;;2.35;1.40;;;;;;;17.72;63.41;100453.72;15608854;28;20044;-55
2023/08/31 12:21:07;;;;;;;1.60;1.20;;;;;;;17.03;60.09;100454.69;15613988;28;20128;-53
2023/08/31 12:28:41;;;;;;;2.00;0.93;;;;;;;16.94;58.95;100473.31;15613385;28;20045;-57
2023/08/31 12:36:15;;;;;;;1.77;1.10;;;;;;;16.32;60.08;100495.47;15613338;28;20486;-57
2023/08/31 12:43:48;;;;;;;4.22;1.42;;;;;;;16.64;65.49;100495.50;15612954;28;20152;-54
2023/08/31 12:51:23;;;;;;;1.90;1.40;;;;;;;17.20;63.68;100495.19;15620946;28;20095;-53
2023/08/31 12:58:57;;;;;;;1.60;1.10;;;;;;;19.14;59.52;100487.78;15624340;28;20043;-53
2023/08/31 13:06:32;;;;;;;2.95;0.70;;;;;;;19.56;51.07;100487.44;15621959;28;20256;-54
2023/08/31 13:14:05;;;;;;;2.50;0.80;;;;;;;19.51;52.76;100482.00;15619389;28;20505;-53
2023/08/31 13:21:40;;;;;;;1.30;0.77;;;;;;;19.19;53.06;100493.19;15621359;28;20108;-55
2023/08/31 13:29:14;;;;;;;1.52;0.85;;;;;;;18.04;53.98;100502.50;15603719;28;20033;-51
2023/08/31 13:36:49;;;;;;;1.73;1.00;;;;;;;16.86;57.16;100519.06;15615213;28;20152;-52
2023/08/31 13:44:22;;;;;;;2.25;1.05;;;;;;;17.42;57.35;100511.34;15620224;28;20099;-54
2023/08/31 13:51:57;;;;;;;2.90;1.10;;;;;;;16.97;57.96;100523.47;15621286;28;20128;-53
2023/08/31 13:59:30;;;;;;;1.48;1.13;;;;;;;16.32;60.81;100526.06;15620132;28;20379;-54
2023/08/31 14:07:05;;;;;;;2.10;1.10;;;;;;;16.15;62.04;100533.44;15615992;28;20037;-53
2023/08/31 14:14:39;;;;;;;3.35;1.10;;;;;;;16.15;62.99;100533.44;15584239;28;20049;-55
2023/08/31 14:22:17;;;;;;;2.25;0.65;;;;;;;16.60;60.43;100516.06;15596005;28;20639;-49
2023/08/31 14:29:50;;;;;;;1.70;0.55;;;;;;;16.81;59.54;100531.47;15582859;28;20450;-54
2023/08/31 14:37:25;;;;;;;0.93;0.32;;;;;;;16.45;57.08;100530.25;15594017;28;20048;-54
2023/08/31 14:44:58;;;;;;;1.33;0.40;;;;;;;17.13;57.41;100538.00;15562005;28;20038;-52
2023/08/31 14:52:33;;;;;;;1.45;1.00;;;;;;;17.20;56.87;100542.13;15586062;28;20509;-53
2023/08/31 15:00:09;;;;;;;2.42;0.90;;;;;;;16.59;59.40;100544.22;15620125;28;20071;-52
2023/08/31 15:07:43;;;;;;;1.55;0.85;;;;;;;16.91;58.93;100562.47;15611529;28;20133;-54
2023/08/31 15:15:16;;;;;;;2.90;1.15;;;;;;;16.97;57.99;100567.72;15595690;28;20044;-47
2023/08/31 15:22:51;;;;;;;2.33;1.10;;;;;;;16.93;58.82;100584.75;15607755;28;20071;-52
2023/08/31 15:30:24;;;;;;;1.90;0.70;;;;;;;16.55;59.88;100584.59;15582004;28;20048;-51
2023/08/31 15:38:00;;;;;;;2.55;0.90;;;;;;;16.60;59.48;100581.13;15589413;28;20041;-49
2023/08/31 15:45:35;;;;;;;3.55;0.90;;;;;;;16.28;60.02;100587.22;15612496;28;20068;-52
2023/08/31 15:53:09;;;;;;;4.00;1.00;;;;;;;16.64;58.86;100595.75;15608531;28;20072;-50
2023/08/31 16:00:43;;;;;;;2.90;0.90;;;;;;;16.70;57.93;100592.06;15607219;28;20034;-51
2023/08/31 16:08:17;;;;;;;2.35;1.05;;;;;;;16.05;57.89;100588.28;15606581;28;20505;-49
2023/08/31 16:15:51;;;;;;;2.30;0.82;;;;;;;16.55;58.26;100592.72;15594677;28;20045;-49
2023/08/31 16:23:26;;;;;;;1.02;0.70;;;;;;;15.75;59.44;100593.25;15608252;28;20115;-48
2023/08/31 16:31:00;;;;;;;1.27;0.90;;;;;;;16.68;59.59;100583.34;15597714;28;20045;-49
2023/08/31 16:38:34;;;;;;;4.03;0.70;;;;;;;16.81;58.02;100590.31;15596454;28;20085;-51
2023/08/31 16:46:07;;;;;;;1.17;0.73;;;;;;;15.97;62.35;100623.91;15591585;28;20500;-48
2023/08/31 16:53:43;;;;;;;3.70;1.25;;;;;;;14.78;70.03;100646.47;15599808;28;20160;-52
2023/08/31 17:01:16;;;;;;;3.40;0.80;;;;;;;13.51;72.69;100648.97;15609297;28;20395;-50
2023/08/31 17:08:50;;;;;;;;;;;;;;;12.81;72.80;100637.94;15609990;28;20075;-48
2023/08/31 17:16:23;;;;;;;1.02;0.50;;;;;;;13.22;72.86;100624.53;15596505;28;19921;-48
2023/08/31 17:23:58;;;;;;;5.00;1.20;;;;;;;12.73;76.77;100634.53;15615972;28;20552;-50
2023/08/31 17:31:32;;;;;;;1.45;0.60;;;;;;;13.07;76.01;100620.59;15620901;28;20065;-51
2023/08/31 17:39:07;;;;;;;;;;;;;;;12.87;75.63;100623.56;15612664;28;20041;-47
2023/08/31 17:46:42;;;;;;;5.28;2.10;;;;;;;12.63;77.71;100625.31;15602817;28;19990;-49
2023/08/31 17:54:17;;;;;;;3.25;1.60;;;;;;;12.68;78.99;100629.00;15603773;28;20065;-47
2023/08/31 18:01:50;;;;;;;2.95;1.75;;;;;;;12.63;79.07;100626.16;15620163;28;20409;-47
2023/08/31 18:09:26;;;;;;;5.70;1.88;;;;;;;13.15;77.00;100614.88;15596047;28;20136;-48
2023/08/31 18:17:05;;;;;;;4.68;2.25;;;;;;;13.40;77.08;100647.91;15595183;28;20041;-50
2023/08/31 18:24:40;;;;;;;6.47;1.80;;;;;;;12.62;79.55;100656.00;15616169;28;20037;-53
2023/08/31 18:32:13;;;;;;;4.22;2.20;;;;;;;12.48;79.82;100680.38;15618026;28;20055;-53
2023/08/31 18:39:48;;;;;;;3.15;2.00;;;;;;;12.47;79.94;100669.84;15596805;28;20513;-47
2023/08/31 18:47:21;;;;;;;3.80;2.10;;;;;;;12.83;78.35;100681.66;15598876;28;20065;-47
2023/08/31 18:54:56;;;;;;;;;;;;;;;13.13;76.68;100678.97;15601300;28;20042;-50
2023/08/31 19:02:35;;;;;;;2.83;1.98;;;;;;;12.31;77.85;100679.34;15595958;28;19921;-50
2023/08/31 19:10:13;;;;;;;4.97;2.45;;;;;;;12.91;75.26;100676.75;15613990;28;20033;-50
2023/08/31 19:17:48;;;;;;;2.50;1.88;;;;;;;13.24;74.46;100660.19;15610732;28;20144;-48
2023/08/31 19:25:29;;;;;;;5.10;2.38;;;;;;;13.56;73.31;100662.59;15612090;28;20037;-49
2023/08/31 19:33:02;;;;;;;3.47;2.15;;;;;;;13.05;75.94;100677.41;15605513;28;20080;-48
2023/08/31 19:40:37;;;;;;;4.45;2.90;;;;;;;12.47;78.48;100692.22;15565578;28;20037;-47
2023/08/31 19:48:11;;;;;;;2.72;2.20;;;;;;;13.28;74.66;100693.69;15544784;28;20051;-50
2023/08/31 19:55:51;;;;;;;4.28;2.08;;;;;;;13.01;76.26;100698.63;15586342;28;20046;-49
2023/08/31 20:03:25;;;;;;;3.88;2.50;;;;;;;12.24;79.13;100702.81;15588387;28;20430;-51
2023/08/31 20:11:01;;;;;;;3.50;2.17;;;;;;;12.90;77.03;100710.13;15582736;28;20111;-48
2023/08/31 20:18:34;;;;;;;4.55;2.83;;;;;;;12.79;78.37;100710.91;15566691;28;20058;-49
2023/08/31 20:26:09;;;;;;;3.95;2.60;;;;;;;12.83;78.37;100720.19;15595119;28;20033;-49
2023/08/31 20:33:44;;;;;;;7.70;3.00;;;;;;;13.04;76.75;100713.50;15590678;28;20089;-46
2023/08/31 20:41:18;;;;;;;;;;;;;;;12.46;78.23;100722.06;15585000;28;20041;-46
2023/08/31 20:48:51;;;;;;;4.65;2.80;;;;;;;13.18;75.27;100719.53;15620060;28;20393;-50
2023/08/31 20:56:27;;;;;;;13.93;6.30;;;;;;;12.91;76.73;100735.19;15618581;28;20041;-50
2023/08/31 21:04:01;;;;;;;3.38;2.30;;;;;;;12.52;78.02;100740.81;15623910;28;20124;-49
2023/08/31 21:11:36;;;;;;;2.58;2.13;;;;;;;12.35;78.67;100745.13;15593891;28;20049;-48
2023/08/31 21:19:11;;;;;;;4.30;2.00;;;;;;;12.35;77.51;100753.19;15581448;28;20522;-48
2023/08/31 21:26:45;;;;;;;2.78;2.05;;;;;;;12.98;76.46;100761.03;15602874;28;20125;-47
2023/08/31 21:34:18;;;;;;;2.13;1.90;;;;;;;12.36;77.32;100771.03;15611518;28;20049;-47
2023/08/31 21:41:52;;;;;;;3.38;1.90;;;;;;;12.46;77.64;100776.72;15610317;28;20402;-47
2023/08/31 21:49:26;;;;;;;3.45;2.03;;;;;;;12.66;76.73;100773.81;15602253;22;20100;-48
2023/08/31 21:57:00;;;;;;;5.28;2.33;;;;;;;12.38;77.93;100776.16;15584136;28;20156;-49
2023/08/31 22:04:35;;;;;;;5.65;2.35;;;;;;;12.33;77.91;100786.78;15592573;28;20057;-50
2023/08/31 22:12:11;;;;;;;3.63;2.42;;;;;;;12.79;75.73;100782.81;15573261;28;20397;-48
2023/08/31 22:19:44;;;;;;;4.40;2.58;;;;;;;12.70;76.08;100788.50;15612004;28;20124;-47
2023/08/31 22:27:19;;;;;;;4.55;2.17;;;;;;;12.27;77.82;100788.50;15588741;28;20132;-48
2023/08/31 22:34:52;;;;;;;3.78;2.20;;;;;;;12.63;75.66;100793.09;15604650;28;20466;-51
2023/08/31 22:42:27;;;;;;;4.28;2.40;;;;;;;12.83;74.55;100790.22;15611225;28;20136;-50
2023/08/31 22:50:00;;;;;;;3.95;2.20;;;;;;;12.80;74.40;100779.88;15609628;28;20507;-52
2023/08/31 22:57:34;;;;;;;4.43;2.20;;;;;;;12.77;73.41;100774.94;15574493;28;20246;-51
2023/08/31 23:05:09;;;;;;;2.40;2.10;;;;;;;12.74;73.47;100770.84;15601901;28;20490;-49
2023/08/31 23:12:44;;;;;;;4.47;2.28;;;;;;;12.14;75.79;100786.72;15606406;28;20033;-48
2023/08/31 23:20:17;;;;;;;5.65;2.28;;;;;;;12.46;74.87;100797.44;15610731;28;20045;-54
2023/08/31 23:27:51;;;;;;;5.78;2.28;;;;;;;12.46;74.49;100808.19;15610358;28;20526;-51
2023/08/31 23:35:24;;;;;;;4.07;2.22;;;;;;;12.24;75.42;100802.38;15608588;28;20129;-49
2023/08/31 23:42:59;;;;;;;4.63;2.20;;;;;;;12.41;73.92;100800.78;15609796;28;20046;-51
2023/08/31 23:50:32;;;;;;;5.80;2.20;;;;;;;11.60;76.96;100814.97;15608582;28;20120;-50
2023/08/31 23:58:07;;;;;;;2.90;2.08;;;;;;;12.27;74.44;100812.72;15609565;28;20463;-50
